createdAt,value
2023-01-21T00:02:01.837Z,90.79
2023-01-21T00:04:30.050Z,90.37
2023-01-21T00:06:58.210Z,90.80
2023-01-21T00:09:27.870Z,90.48
2023-01-21T00:11:55.996Z,90.46
2023-01-21T00:14:24.019Z,90.11
2023-01-21T00:16:52.092Z,90.07
2023-01-21T00:19:20.166Z,90.06
2023-01-21T00:21:48.287Z,89.68
2023-01-21T00:24:16.419Z,90.00
2023-01-21T00:26:46.071Z,89.58
2023-01-21T00:29:14.136Z,89.28
2023-01-21T00:31:42.289Z,89.21
2023-01-21T00:34:11.930Z,89.29
2023-01-21T00:36:40.003Z,89.26
2023-01-21T00:39:08.582Z,89.25
2023-01-21T00:41:37.373Z,89.34
2023-01-21T00:44:07.392Z,89.64
2023-01-21T00:46:35.497Z,89.53
2023-01-21T00:49:03.662Z,89.71
2023-01-21T00:51:31.635Z,89.74
2023-01-21T00:53:59.732Z,90.00
2023-01-21T00:56:27.815Z,90.15
2023-01-21T00:58:56.185Z,90.44
2023-01-21T01:01:27.062Z,90.93
2023-01-21T01:03:55.224Z,91.36
2023-01-21T01:06:25.164Z,91.57
2023-01-21T01:08:54.365Z,92.04
2023-01-21T01:11:22.746Z,92.15
2023-01-21T01:13:50.812Z,92.27
2023-01-21T01:16:19.230Z,92.52
2023-01-21T01:18:49.055Z,92.36
2023-01-21T01:21:19.337Z,92.22
2023-01-21T01:23:47.972Z,92.01
2023-01-21T01:26:18.037Z,91.94
2023-01-21T01:28:46.837Z,91.91
2023-01-21T01:31:17.253Z,91.79
2023-01-21T01:33:45.559Z,91.14
2023-01-21T01:36:16.985Z,90.87
2023-01-21T01:38:45.723Z,90.63
2023-01-21T01:41:17.839Z,90.38
2023-01-21T01:43:59.226Z,90.22
2023-01-21T01:46:29.047Z,89.95
2023-01-21T01:49:03.153Z,89.39
2023-01-21T01:51:42.336Z,89.21
2023-01-21T01:54:13.145Z,88.89
2023-01-21T01:56:46.628Z,88.59
2023-01-21T01:59:15.868Z,88.35
2023-01-21T02:01:44.793Z,88.04
2023-01-21T02:04:18.673Z,87.75
2023-01-21T02:06:49.251Z,87.80
2023-01-21T02:09:17.317Z,87.68
2023-01-21T02:11:45.576Z,87.54
2023-01-21T02:14:13.833Z,87.47
2023-01-21T02:17:00.685Z,87.66
2023-01-21T02:20:22.216Z,87.44
2023-01-21T02:23:00.394Z,87.54
2023-01-21T02:25:48.476Z,87.71
2023-01-21T02:28:44.554Z,87.69
2023-01-21T02:31:44.499Z,88.02
2023-01-21T02:34:28.723Z,87.96
2023-01-21T02:37:06.576Z,88.17
2023-01-21T02:39:59.331Z,88.57
2023-01-21T02:42:32.469Z,88.60
2023-01-21T02:45:10.130Z,88.64
2023-01-21T02:47:48.788Z,88.70
2023-01-21T02:50:25.612Z,88.74
2023-01-21T02:52:58.144Z,88.84
2023-01-21T02:55:32.712Z,88.91
2023-01-21T02:58:04.652Z,88.85
2023-01-21T03:00:42.956Z,88.70
2023-01-21T03:03:48.182Z,88.71
2023-01-21T03:06:49.101Z,88.74
2023-01-21T03:09:24.153Z,88.87
2023-01-21T03:12:22.699Z,88.71
2023-01-21T03:15:14.014Z,88.59
2023-01-21T03:17:46.816Z,88.49
2023-01-21T03:20:22.334Z,88.48
2023-01-21T03:22:58.549Z,88.87
2023-01-21T03:25:29.659Z,88.89
2023-01-21T03:28:00.546Z,89.40
2023-01-21T03:30:30.180Z,89.62
2023-01-21T03:32:59.972Z,89.75
2023-01-21T03:35:30.805Z,90.09
2023-01-21T03:38:06.759Z,90.50
2023-01-21T03:40:39.751Z,90.72
2023-01-21T03:43:10.639Z,91.13
2023-01-21T03:45:44.664Z,91.14
2023-01-21T03:48:20.915Z,91.49
2023-01-21T03:50:56.626Z,91.51
2023-01-21T03:53:26.425Z,91.81
2023-01-21T03:55:54.453Z,91.67
2023-01-21T03:58:24.884Z,92.16
2023-01-21T04:00:54.091Z,92.11
2023-01-21T04:03:22.357Z,92.14
2023-01-21T04:05:50.415Z,92.09
2023-01-21T04:08:18.607Z,92.26
2023-01-21T04:10:48.316Z,92.30
2023-01-21T04:13:16.408Z,92.43
2023-01-21T04:15:46.912Z,92.54
2023-01-21T04:18:15.144Z,92.60
2023-01-21T04:20:43.414Z,92.59
2023-01-21T04:23:11.439Z,92.43
2023-01-21T04:25:39.504Z,92.48
2023-01-21T04:28:08.965Z,92.60
2023-01-21T04:30:39.829Z,92.62
2023-01-21T04:33:08.198Z,92.27
2023-01-21T04:35:36.526Z,92.34
2023-01-21T04:38:06.355Z,92.32
2023-01-21T04:40:34.471Z,92.62
2023-01-21T04:43:02.545Z,92.51
2023-01-21T04:45:32.033Z,92.88
2023-01-21T04:47:59.998Z,92.35
2023-01-21T04:50:28.168Z,92.25
2023-01-21T04:52:56.559Z,92.08
2023-01-21T04:55:26.294Z,91.52
2023-01-21T04:57:54.643Z,91.68
2023-01-21T05:00:23.537Z,91.38
2023-01-21T05:02:53.192Z,91.49
2023-01-21T05:05:21.217Z,91.42
2023-01-21T05:07:49.509Z,91.28
2023-01-21T05:10:19.248Z,91.17
2023-01-21T05:12:48.575Z,91.12
2023-01-21T05:15:16.790Z,91.15
2023-01-21T05:17:45.116Z,90.95
2023-01-21T05:20:14.875Z,90.97
2023-01-21T05:22:43.099Z,91.20
2023-01-21T05:25:11.382Z,91.11
2023-01-21T05:27:39.506Z,91.16
2023-01-21T05:30:09.057Z,91.18
2023-01-21T05:32:37.549Z,91.17
2023-01-21T05:35:06.263Z,90.71
2023-01-21T05:37:35.716Z,90.91
2023-01-21T05:40:06.978Z,90.62
2023-01-21T05:42:35.100Z,90.13
2023-01-21T05:45:03.173Z,89.80
2023-01-21T05:47:32.322Z,89.35
2023-01-21T05:50:00.354Z,89.03
2023-01-21T05:52:28.694Z,88.96
2023-01-21T05:55:02.122Z,88.75
2023-01-21T05:57:31.484Z,88.63
2023-01-21T05:59:59.959Z,88.46
2023-01-21T06:02:28.409Z,88.17
2023-01-21T06:04:56.501Z,88.29
2023-01-21T06:07:24.572Z,88.27
2023-01-21T06:09:53.267Z,88.24
2023-01-21T06:12:24.625Z,88.19
2023-01-21T06:14:52.945Z,88.21
2023-01-21T06:17:21.040Z,88.23
2023-01-21T06:19:49.264Z,88.34
2023-01-21T06:22:18.144Z,88.09
2023-01-21T06:24:46.613Z,88.39
2023-01-21T06:27:14.893Z,88.43
2023-01-21T06:29:44.308Z,88.43
2023-01-21T06:32:12.362Z,88.34
2023-01-21T06:34:44.106Z,88.39
2023-01-21T06:37:13.186Z,88.41
2023-01-21T06:39:41.473Z,88.40
2023-01-21T06:42:11.544Z,88.25
2023-01-21T06:44:39.610Z,88.59
2023-01-21T06:47:09.475Z,88.84
2023-01-21T06:49:37.995Z,88.79
2023-01-21T06:52:06.578Z,89.19
2023-01-21T06:54:34.705Z,89.45
2023-01-21T06:57:02.753Z,89.85
2023-01-21T06:59:30.901Z,90.15
2023-01-21T07:01:59.327Z,90.64
2023-01-21T07:04:30.589Z,90.80
2023-01-21T07:06:58.652Z,90.80
2023-01-21T07:09:26.734Z,91.22
2023-01-21T07:11:55.571Z,91.26
2023-01-21T07:14:23.583Z,91.52
2023-01-21T07:16:51.656Z,91.91
2023-01-21T07:19:19.999Z,91.98
2023-01-21T07:21:49.744Z,92.34
2023-01-21T07:24:17.976Z,92.52
2023-01-21T07:26:46.350Z,92.83
2023-01-21T07:29:14.363Z,93.03
2023-01-21T07:31:42.489Z,93.02
2023-01-21T07:34:10.616Z,93.34
2023-01-21T07:36:38.749Z,93.57
2023-01-21T07:39:08.304Z,93.71
2023-01-21T07:41:55.694Z,93.59
2023-01-21T07:44:23.803Z,93.83
2023-01-21T07:46:51.966Z,94.11
2023-01-21T07:49:20.046Z,94.52
2023-01-21T07:51:48.640Z,94.59
2023-01-21T07:54:18.186Z,94.86
2023-01-21T07:56:52.078Z,94.90
2023-01-21T07:59:20.227Z,95.11
2023-01-21T08:01:48.595Z,95.37
2023-01-21T08:04:16.741Z,95.44
2023-01-21T08:06:44.900Z,95.54
2023-01-21T08:09:13.028Z,95.88
2023-01-21T08:11:44.783Z,96.03
2023-01-21T08:14:13.109Z,96.22
2023-01-21T08:16:41.452Z,96.94
2023-01-21T08:19:09.941Z,97.42
2023-01-21T08:21:39.052Z,97.77
2023-01-21T08:24:08.017Z,97.91
2023-01-21T08:26:35.992Z,97.92
2023-01-21T08:29:05.601Z,97.65
2023-01-21T08:31:35.163Z,97.32
2023-01-21T08:34:03.226Z,97.26
2023-01-21T08:36:31.252Z,96.84
2023-01-21T08:39:02.018Z,96.92
2023-01-21T08:41:30.146Z,96.73
2023-01-21T08:43:58.178Z,96.59
2023-01-21T08:46:27.750Z,96.60
2023-01-21T08:48:56.008Z,96.21
2023-01-21T08:51:24.170Z,96.32
2023-01-21T08:54:24.751Z,96.32
2023-01-21T08:56:52.737Z,95.85
2023-01-21T08:59:28.035Z,95.70
2023-01-21T09:01:58.080Z,95.68
2023-01-21T09:04:26.227Z,95.25
2023-01-21T09:06:55.280Z,94.91
2023-01-21T09:09:23.341Z,94.66
2023-01-21T09:11:55.251Z,94.08
2023-01-21T09:14:23.292Z,93.93
2023-01-21T09:16:52.074Z,93.77
2023-01-21T09:19:22.882Z,93.48
2023-01-21T09:21:52.456Z,93.34
2023-01-21T09:24:21.818Z,92.92
2023-01-21T09:26:49.835Z,93.00
2023-01-21T09:29:19.135Z,92.84
2023-01-21T09:31:47.304Z,92.54
2023-01-21T09:34:15.382Z,92.19
2023-01-21T09:36:44.892Z,92.33
2023-01-21T09:39:13.166Z,92.06
2023-01-21T09:41:44.410Z,92.08
2023-01-21T09:44:23.042Z,91.95
2023-01-21T09:46:56.739Z,91.55
2023-01-21T09:49:29.329Z,91.28
2023-01-21T09:52:05.860Z,91.05
2023-01-21T09:54:36.769Z,90.60
2023-01-21T09:57:52.567Z,90.64
2023-01-21T10:00:42.505Z,90.20
2023-01-21T10:03:19.702Z,89.99
2023-01-21T10:06:25.347Z,89.82
2023-01-21T10:09:13.919Z,89.50
2023-01-21T10:11:53.072Z,89.37
2023-01-21T10:14:38.696Z,89.22
2023-01-21T10:17:14.987Z,88.87
2023-01-21T10:19:49.150Z,88.77
2023-01-21T10:22:23.159Z,88.83
2023-01-21T10:24:57.636Z,88.78
2023-01-21T10:27:28.158Z,88.50
2023-01-21T10:30:03.669Z,88.75
2023-01-21T10:32:35.567Z,88.64
2023-01-21T10:35:03.807Z,88.74
2023-01-21T10:37:36.324Z,88.48
2023-01-21T10:40:17.446Z,88.44
2023-01-21T10:43:00.636Z,88.37
2023-01-21T10:45:37.777Z,88.01
2023-01-21T10:48:13.927Z,87.95
2023-01-21T10:50:50.767Z,88.04
2023-01-21T10:53:24.711Z,88.20
2023-01-21T10:56:05.735Z,88.16
2023-01-21T10:58:38.115Z,88.05
2023-01-21T11:01:11.289Z,87.80
2023-01-21T11:03:43.823Z,87.88
2023-01-21T11:06:14.668Z,87.90
2023-01-21T11:08:45.596Z,87.81
2023-01-21T11:11:22.435Z,87.75
2023-01-21T11:13:50.460Z,87.68
2023-01-21T11:16:32.814Z,87.76
2023-01-21T11:19:03.346Z,87.79
2023-01-21T11:21:31.359Z,87.70
2023-01-21T11:24:01.281Z,87.86
2023-01-21T11:26:32.992Z,88.06
2023-01-21T11:29:08.322Z,88.10
2023-01-21T11:31:37.120Z,87.88
2023-01-21T11:34:08.326Z,88.01
2023-01-21T11:36:36.591Z,87.94
2023-01-21T11:39:08.313Z,87.65
2023-01-21T11:41:38.006Z,87.44
2023-01-21T11:44:11.715Z,87.54
2023-01-21T11:46:45.422Z,87.66
2023-01-21T11:49:28.561Z,87.75
2023-01-21T11:52:16.797Z,87.80
2023-01-21T11:54:45.859Z,88.18
2023-01-21T11:57:36.344Z,88.42
2023-01-21T12:00:18.716Z,88.28
2023-01-21T12:02:50.892Z,88.30
2023-01-21T12:05:28.307Z,87.93
2023-01-21T12:07:59.706Z,87.79
2023-01-21T12:10:31.318Z,87.45
2023-01-21T12:13:20.379Z,87.15
2023-01-21T12:16:20.407Z,86.73
2023-01-21T12:19:29.797Z,86.18
2023-01-21T12:22:31.490Z,85.25
2023-01-21T12:25:17.869Z,84.99
2023-01-21T12:27:57.700Z,84.75
2023-01-21T12:30:40.540Z,84.42
2023-01-21T12:33:17.918Z,84.24
2023-01-21T12:35:51.770Z,84.08
2023-01-21T12:38:24.171Z,84.27
2023-01-21T12:40:59.429Z,84.25
2023-01-21T12:43:33.021Z,84.24
2023-01-21T12:46:10.793Z,84.59
2023-01-21T12:48:44.340Z,84.63
2023-01-21T12:51:20.061Z,85.02
2023-01-21T12:54:32.207Z,85.10
2023-01-21T12:57:11.063Z,85.20
2023-01-21T12:59:44.470Z,85.23
2023-01-21T13:02:28.763Z,85.17
2023-01-21T13:05:02.841Z,84.95
2023-01-21T13:07:39.498Z,84.77
2023-01-21T13:10:16.860Z,84.54
2023-01-21T13:12:51.182Z,83.98
2023-01-21T13:15:22.226Z,84.01
2023-01-21T13:17:56.872Z,83.95
2023-01-21T13:20:28.412Z,84.00
2023-01-21T13:23:07.475Z,84.12
2023-01-21T13:25:51.237Z,84.25
2023-01-21T13:28:28.236Z,84.40
2023-01-21T13:31:04.214Z,84.47
2023-01-21T13:33:43.585Z,84.74
2023-01-21T13:36:43.406Z,84.75
2023-01-21T13:39:22.945Z,85.00
2023-01-21T13:42:04.374Z,85.17
2023-01-21T13:45:06.537Z,85.20
2023-01-21T13:47:54.573Z,85.33
2023-01-21T13:50:38.982Z,85.42
2023-01-21T13:53:39.901Z,85.38
2023-01-21T13:56:30.268Z,85.44
2023-01-21T13:59:04.206Z,85.34
2023-01-21T14:01:42.302Z,85.19
2023-01-21T14:04:15.440Z,84.82
2023-01-21T14:06:56.226Z,84.68
2023-01-21T14:09:28.893Z,84.53
2023-01-21T14:12:12.143Z,84.71
2023-01-21T14:15:10.332Z,84.97
2023-01-21T14:18:05.499Z,85.41
2023-01-21T14:21:15.954Z,85.79
2023-01-21T14:24:06.949Z,86.20
2023-01-21T14:26:55.518Z,87.17
2023-01-21T14:29:34.561Z,87.58
2023-01-21T14:32:13.689Z,88.13
2023-01-21T14:34:51.071Z,88.94
2023-01-21T14:37:28.995Z,89.50
2023-01-21T14:40:09.780Z,89.86
2023-01-21T14:42:43.269Z,90.10
2023-01-21T14:45:13.135Z,90.39
2023-01-21T14:47:50.189Z,90.51
2023-01-21T14:50:48.759Z,90.89
2023-01-21T14:53:27.136Z,90.77
2023-01-21T14:56:16.905Z,90.81
2023-01-21T14:58:49.219Z,90.79
2023-01-21T15:01:38.023Z,91.27
2023-01-21T15:04:09.671Z,91.59
2023-01-21T15:06:41.893Z,92.01
2023-01-21T15:09:22.768Z,92.48
2023-01-21T15:11:57.667Z,92.60
2023-01-21T15:14:30.643Z,92.92
2023-01-21T15:16:58.912Z,93.15
2023-01-21T15:19:30.283Z,93.31
2023-01-21T15:22:23.281Z,93.49
2023-01-21T15:25:20.675Z,93.58
2023-01-21T15:28:38.395Z,93.57
2023-01-21T15:31:10.986Z,93.63
2023-01-21T15:33:46.111Z,93.86
2023-01-21T15:36:27.962Z,94.12
2023-01-21T15:39:04.263Z,94.16
2023-01-21T15:41:44.919Z,94.78
2023-01-21T15:44:38.127Z,94.96
2023-01-21T15:47:20.393Z,95.32
2023-01-21T15:49:59.182Z,95.92
2023-01-21T15:52:46.352Z,96.32
2023-01-21T15:55:29.653Z,96.75
2023-01-21T15:58:11.498Z,97.27
2023-01-21T16:00:49.724Z,97.39
2023-01-21T16:03:26.498Z,97.63
2023-01-21T16:06:03.099Z,97.89
2023-01-21T16:08:49.519Z,98.24
2023-01-21T16:11:35.919Z,98.30
2023-01-21T16:14:16.661Z,98.42
2023-01-21T16:16:55.118Z,98.56
2023-01-21T16:19:35.285Z,98.32
2023-01-21T16:22:07.776Z,98.53
2023-01-21T16:24:44.786Z,98.08
2023-01-21T16:27:21.389Z,98.37
2023-01-21T16:29:49.743Z,98.52
2023-01-21T16:32:20.335Z,98.71
2023-01-21T16:34:50.407Z,98.87
2023-01-21T16:37:21.507Z,99.04
2023-01-21T16:39:49.852Z,98.90
2023-01-21T16:42:27.683Z,98.92
2023-01-21T16:44:56.109Z,98.98
2023-01-21T16:47:27.456Z,98.89
2023-01-21T16:49:58.765Z,99.00
2023-01-21T16:52:28.646Z,98.95
2023-01-21T16:54:57.508Z,98.89
2023-01-21T16:57:34.130Z,98.88
2023-01-21T17:00:22.376Z,98.68
2023-01-21T17:02:50.743Z,98.61
2023-01-21T17:05:38.242Z,98.70
2023-01-21T17:08:12.413Z,98.76
2023-01-21T17:10:53.927Z,98.83
2023-01-21T17:13:23.614Z,98.92
2023-01-21T17:15:57.778Z,99.01
2023-01-21T17:18:35.538Z,98.99
2023-01-21T17:21:10.990Z,99.22
2023-01-21T17:23:50.396Z,99.22
2023-01-21T17:26:23.006Z,99.51
2023-01-21T17:29:09.531Z,99.49
2023-01-21T17:31:39.454Z,99.73
2023-01-21T17:34:21.209Z,99.91
2023-01-21T17:36:52.610Z,100.00
2023-01-21T17:39:54.509Z,100.00
2023-01-21T17:42:24.967Z,100.00
2023-01-21T17:44:55.724Z,100.00
2023-01-21T17:47:28.149Z,100.00
2023-01-21T17:50:00.167Z,100.00
2023-01-21T17:52:30.832Z,100.00
2023-01-21T17:55:26.767Z,100.00
2023-01-21T17:57:55.915Z,100.00
2023-01-21T18:00:35.968Z,100.00
2023-01-21T18:03:04.889Z,100.00
2023-01-21T18:05:33.855Z,100.00
2023-01-21T18:08:16.274Z,100.00
2023-01-21T18:10:45.610Z,100.00
2023-01-21T18:13:14.496Z,100.00
2023-01-21T18:15:44.364Z,100.00
2023-01-21T18:18:18.411Z,100.00
2023-01-21T18:20:50.528Z,100.00
2023-01-21T18:23:20.953Z,100.00
2023-01-21T18:25:52.560Z,100.00
2023-01-21T18:28:23.440Z,100.00
2023-01-21T18:30:52.757Z,100.00
2023-01-21T18:33:22.320Z,100.00
2023-01-21T18:35:52.739Z,100.00
2023-01-21T18:38:27.685Z,100.00
2023-01-21T18:40:56.616Z,100.00
2023-01-21T18:43:25.047Z,100.00
2023-01-21T18:45:54.653Z,100.00
2023-01-21T18:48:28.921Z,100.00
2023-01-21T18:50:57.589Z,100.00
2023-01-21T18:53:28.163Z,100.00
2023-01-21T18:55:56.389Z,100.00
2023-01-21T18:58:24.739Z,100.00
2023-01-21T19:00:52.952Z,100.00
2023-01-21T19:03:23.269Z,100.00
2023-01-21T19:05:52.865Z,100.00
2023-01-21T19:08:28.133Z,100.00
2023-01-21T19:10:57.772Z,100.00
2023-01-21T19:13:26.081Z,100.00
2023-01-21T19:15:54.717Z,100.00
2023-01-21T19:18:23.076Z,100.00
2023-01-21T19:20:51.237Z,100.00
2023-01-21T19:23:20.934Z,100.00
2023-01-21T19:25:53.365Z,100.00
2023-01-21T19:28:23.960Z,100.00
2023-01-21T19:30:55.574Z,100.00
2023-01-21T19:33:24.386Z,100.00
2023-01-21T19:36:01.921Z,100.00
2023-01-21T19:38:30.344Z,100.00
2023-01-21T19:40:58.461Z,100.00
2023-01-21T19:43:28.245Z,100.00
2023-01-21T19:45:59.149Z,100.00
2023-01-21T19:48:29.424Z,100.00
2023-01-21T19:50:57.412Z,100.00
2023-01-21T19:53:25.565Z,100.00
2023-01-21T19:55:53.749Z,100.00
2023-01-21T19:58:25.448Z,100.00
2023-01-21T20:00:55.611Z,100.00
2023-01-21T20:03:24.192Z,100.00
2023-01-21T20:05:54.136Z,100.00
2023-01-21T20:08:25.986Z,100.00
2023-01-21T20:10:56.107Z,100.00
2023-01-21T20:13:24.475Z,100.00
2023-01-21T20:15:54.539Z,100.00
2023-01-21T20:18:24.771Z,100.00
2023-01-21T20:20:53.801Z,100.00
2023-01-21T20:23:25.337Z,100.00
2023-01-21T20:25:59.509Z,100.00
2023-01-21T20:28:35.065Z,100.00
2023-01-21T20:31:07.190Z,100.00
2023-01-21T20:33:37.063Z,100.00
2023-01-21T20:36:07.341Z,100.00
2023-01-21T20:38:38.589Z,100.00
2023-01-21T20:41:07.753Z,100.00
2023-01-21T20:43:37.551Z,100.00
2023-01-21T20:46:12.743Z,100.00
2023-01-21T20:48:43.478Z,100.00
2023-01-21T20:51:12.995Z,100.00
2023-01-21T20:53:41.413Z,100.00
2023-01-21T20:56:20.350Z,100.00
2023-01-21T20:58:49.140Z,100.00
2023-01-21T21:01:25.134Z,100.00
2023-01-21T21:03:54.026Z,100.00
2023-01-21T21:06:25.223Z,100.00
2023-01-21T21:08:53.848Z,100.00
2023-01-21T21:11:23.471Z,100.00
2023-01-21T21:13:52.547Z,100.00
2023-01-21T21:16:24.711Z,100.00
2023-01-21T21:18:53.240Z,100.00
2023-01-21T21:21:23.868Z,100.00
2023-01-21T21:23:53.170Z,100.00
2023-01-21T21:26:23.698Z,100.00
2023-01-21T21:28:54.944Z,100.00
2023-01-21T21:31:25.589Z,100.00
2023-01-21T21:33:53.895Z,100.00
2023-01-21T21:36:23.970Z,100.00
2023-01-21T21:38:55.748Z,100.00
2023-01-21T21:41:43.191Z,100.00
2023-01-21T21:44:12.351Z,100.00
2023-01-21T21:46:59.929Z,100.00
2023-01-21T21:49:28.930Z,100.00
2023-01-21T21:51:57.090Z,100.00
2023-01-21T21:54:25.292Z,100.00
2023-01-21T21:56:57.015Z,100.00
2023-01-21T21:59:25.166Z,100.00
2023-01-21T22:01:54.923Z,100.00
2023-01-21T22:04:23.817Z,100.00
2023-01-21T22:06:52.253Z,100.00
2023-01-21T22:09:22.111Z,100.00
2023-01-21T22:11:50.314Z,100.00
2023-01-21T22:14:18.426Z,100.00
2023-01-21T22:16:46.828Z,100.00
2023-01-21T22:19:16.450Z,100.00
2023-01-21T22:21:45.885Z,100.00
2023-01-21T22:24:15.755Z,100.00
2023-01-21T22:26:44.120Z,100.00
2023-01-21T22:29:12.861Z,100.00
2023-01-21T22:31:41.063Z,100.00
2023-01-21T22:34:09.266Z,100.00
2023-01-21T22:36:38.893Z,100.00
2023-01-21T22:39:08.034Z,100.00
2023-01-21T22:41:37.579Z,100.00
2023-01-21T22:44:06.635Z,100.00
2023-01-21T22:46:34.921Z,100.00
2023-01-21T22:49:04.285Z,100.00
2023-01-21T22:51:32.664Z,100.00
2023-01-21T22:54:02.298Z,100.00
2023-01-21T22:56:50.368Z,100.00
2023-01-21T22:59:19.517Z,100.00
2023-01-21T23:01:48.894Z,100.00
2023-01-21T23:04:20.229Z,100.00
2023-01-21T23:06:52.359Z,100.00
2023-01-21T23:09:21.992Z,100.00
2023-01-21T23:11:52.644Z,100.00
2023-01-21T23:14:21.207Z,100.00
2023-01-21T23:16:49.546Z,100.00
2023-01-21T23:19:17.645Z,100.00
2023-01-21T23:21:46.090Z,100.00
2023-01-21T23:24:14.526Z,100.00
2023-01-21T23:26:44.056Z,100.00
2023-01-21T23:29:13.420Z,100.00
2023-01-21T23:31:41.708Z,100.00
2023-01-21T23:34:14.014Z,100.00
2023-01-21T23:36:42.233Z,100.00
2023-01-21T23:39:11.016Z,100.00
2023-01-21T23:41:39.300Z,100.00
2023-01-21T23:44:10.766Z,100.00
2023-01-21T23:46:39.135Z,100.00
2023-01-21T23:49:07.465Z,100.00
2023-01-21T23:51:36.212Z,100.00
2023-01-21T23:54:04.420Z,100.00
2023-01-21T23:56:32.527Z,100.00
2023-01-21T23:59:02.712Z,100.00
